»·PEaware :: N50WR KLAX-KSAN

N50WR :: KLAX-KSAN

FLIGHT INFORMATION

Flight Status: Arrived
Operator: Privately registered:
United States
More flights under this callsign
Pilot: David M. (29995)
Aircraft: PIPER PA-28 CHEROKEE ARCHER
(P28A)
More flights by this aircraft type
Origin: KLAX Los Angeles Intl
United States
Destination: KSAN San Diego Intl-Lindbergh
United States
More flights between these airports :: More routes between these airports
Route: +VPLVT VPLDP VPSPP VPSMS VPSQS VPSMH
File this flight plan on PilotEdge
Remarks:
Altitude:
(Current/Filed)
5,500ft
Speed:
(Current/Filed)
110kts
Departed: 31-Jul-20 06:21 PM
Arrived: 31-Jul-20 07:22 PM
Distance/Time
Traveled:
95nm/1:01
Distance/Time
To Go:
Arrived

Flight Plot

Page will automatically refresh every two minutes.


Map Options




Map Legend


Flown Route
Filed Route
Departure Airport
Arrival Airport
Navaid (VOR, NDB)
Fix

Horizontal Profiles

Position Reports

Time Latitude Longitude Heading Altitude Ground
Speed
31-Jul-20 17:43 33.941685 -118.379692 143 95ft 0kts
31-Jul-20 17:44 33.941685 -118.379692 143 95ft 0kts
31-Jul-20 17:44 33.941685 -118.379692 143 95ft 0kts
31-Jul-20 17:45 33.941685 -118.379692 143 95ft 0kts
31-Jul-20 17:47 33.941685 -118.379692 143 95ft 0kts
31-Jul-20 17:47 33.941685 -118.379692 143 95ft 0kts
31-Jul-20 17:48 33.941685 -118.379692 143 95ft 0kts
31-Jul-20 17:50 33.941685 -118.379692 141 95ft 0kts
31-Jul-20 17:50 33.941685 -118.379691 140 95ft 0kts
31-Jul-20 17:51 33.941685 -118.379691 139 95ft 0kts
31-Jul-20 17:52 33.941685 -118.379691 139 95ft 0kts
31-Jul-20 17:53 33.941685 -118.379691 139 95ft 0kts
31-Jul-20 17:54 33.941685 -118.379691 139 95ft 0kts
31-Jul-20 17:55 33.941685 -118.379691 139 95ft 0kts
31-Jul-20 17:56 33.941685 -118.379691 138 95ft 0kts
31-Jul-20 17:57 33.941685 -118.379691 138 95ft 0kts
31-Jul-20 17:58 33.941685 -118.379691 138 95ft 0kts
31-Jul-20 17:59 33.941685 -118.379691 138 95ft 0kts
31-Jul-20 18:00 33.941612 -118.379625 142 95ft 0kts
31-Jul-20 18:01 33.941539 -118.379558 143 95ft 0kts
31-Jul-20 18:02 33.941466 -118.379491 143 95ft 0kts
31-Jul-20 18:03 33.941391 -118.379423 143 95ft 0kts
31-Jul-20 18:04 33.941319 -118.379357 143 95ft 0kts
31-Jul-20 18:05 33.941276 -118.379319 144 95ft 0kts
31-Jul-20 18:06 33.941532 -118.379715 143 95ft 0kts
31-Jul-20 18:07 33.941532 -118.379715 143 95ft 0kts
31-Jul-20 18:08 33.941532 -118.379715 143 95ft 0kts
31-Jul-20 18:09 33.941532 -118.379715 143 95ft 0kts
31-Jul-20 18:10 33.941532 -118.379715 143 95ft 0kts
31-Jul-20 18:11 33.941532 -118.379715 143 95ft 0kts
31-Jul-20 18:12 33.941532 -118.379715 143 95ft 0kts
31-Jul-20 18:13 33.941532 -118.379715 143 95ft 0kts
31-Jul-20 18:14 33.941532 -118.379715 143 95ft 0kts
31-Jul-20 18:15 33.941496 -118.379759 265 95ft 0kts
31-Jul-20 18:16 33.941340 -118.380221 140 95ft 9kts
31-Jul-20 18:17 33.940835 -118.380089 174 95ft 0kts
31-Jul-20 18:18 33.940835 -118.380089 174 95ft 0kts
31-Jul-20 18:19 33.939851 -118.380198 247 95ft 13kts
31-Jul-20 18:20 33.937191 -118.402714 268 519ft 86kts
31-Jul-20 18:21 33.924225 -118.422295 175 1451ft 108kts
31-Jul-20 18:22 33.893968 -118.414739 170 2113ft 116kts
31-Jul-20 18:23 33.859846 -118.410389 184 2265ft 122kts
31-Jul-20 18:24 33.828389 -118.410197 180 2420ft 104kts
31-Jul-20 18:25 33.798778 -118.407398 177 2505ft 113kts
31-Jul-20 18:26 33.768862 -118.405868 182 2878ft 109kts
31-Jul-20 18:27 33.737294 -118.403461 177 3316ft 121kts
31-Jul-20 18:28 33.715540 -118.376607 117 3677ft 121kts
31-Jul-20 18:29 33.702716 -118.340214 89 4032ft 102kts
31-Jul-20 18:30 33.695958 -118.305361 89 4494ft 104kts
31-Jul-20 18:31 33.693919 -118.269054 83 4774ft 117kts
31-Jul-20 18:32 33.690084 -118.229319 98 4886ft 122kts
31-Jul-20 18:33 33.682878 -118.190428 95 5156ft 113kts
31-Jul-20 18:34 33.676049 -118.153458 91 5434ft 119kts
31-Jul-20 18:35 33.669271 -118.113636 103 5476ft 127kts
31-Jul-20 18:36 33.652881 -118.075751 107 5493ft 124kts
31-Jul-20 18:37 33.636114 -118.037386 120 5327ft 129kts
31-Jul-20 18:38 33.616093 -118.002532 121 5380ft 127kts
31-Jul-20 18:39 33.595411 -117.968507 117 5526ft 121kts
31-Jul-20 18:40 33.578565 -117.936239 118 6075ft 107kts
31-Jul-20 18:41 33.561608 -117.906373 119 6662ft 100kts
31-Jul-20 18:42 33.545891 -117.875885 115 7059ft 112kts
31-Jul-20 18:43 33.529633 -117.844242 116 7433ft 118kts
31-Jul-20 18:44 33.512564 -117.809447 115 7525ft 125kts
31-Jul-20 18:45 33.491367 -117.775641 115 7548ft 129kts
31-Jul-20 18:46 33.469882 -117.740392 128 7466ft 130kts
31-Jul-20 18:47 33.444747 -117.709549 132 7475ft 128kts
31-Jul-20 18:48 33.415343 -117.684448 145 7485ft 129kts
31-Jul-20 18:49 33.386836 -117.658201 139 7455ft 131kts
31-Jul-20 18:50 33.358849 -117.630988 123 7485ft 126kts
31-Jul-20 18:51 33.336472 -117.598670 116 7551ft 122kts
31-Jul-20 18:52 33.309647 -117.574489 190 7590ft 128kts
31-Jul-20 18:53 33.300691 -117.604996 299 7637ft 102kts
31-Jul-20 18:54 33.320391 -117.625138 356 7774ft 95kts
31-Jul-20 18:55 33.330234 -117.594944 102 7574ft 132kts
31-Jul-20 18:56 33.307209 -117.561361 121 7522ft 128kts
31-Jul-20 18:57 33.283038 -117.529289 133 7306ft 125kts
31-Jul-20 18:58 33.254847 -117.505792 149 6362ft 120kts
31-Jul-20 18:59 33.226203 -117.486916 146 5619ft 115kts
31-Jul-20 19:00 33.203538 -117.462162 127 5172ft 102kts
31-Jul-20 19:01 33.187641 -117.435336 105 5403ft 99kts
31-Jul-20 19:02 33.178031 -117.401192 108 5635ft 121kts
31-Jul-20 19:03 33.158872 -117.367915 140 5625ft 122kts
31-Jul-20 19:04 33.134406 -117.339240 139 5548ft 130kts
31-Jul-20 19:05 33.099753 -117.324012 165 5236ft 132kts
31-Jul-20 19:06 33.066174 -117.314327 165 5382ft 122kts
31-Jul-20 19:07 33.033722 -117.303558 170 5480ft 122kts
31-Jul-20 19:08 33.000720 -117.295076 167 5599ft 121kts
31-Jul-20 19:09 32.967233 -117.286701 165 5662ft 122kts
31-Jul-20 19:10 32.933358 -117.278402 167 5647ft 127kts
31-Jul-20 19:11 32.899073 -117.268235 169 5604ft 127kts
31-Jul-20 19:12 32.864425 -117.261656 167 5598ft 124kts
31-Jul-20 19:13 32.830533 -117.251836 165 5552ft 128kts
31-Jul-20 19:14 32.796679 -117.245296 182 5595ft 121kts
31-Jul-20 19:15 32.764275 -117.250943 156 5687ft 120kts
31-Jul-20 19:16 32.757301 -117.215230 92 4458ft 113kts
31-Jul-20 19:17 32.755203 -117.179074 93 2677ft 118kts
31-Jul-20 19:18 32.750468 -117.148222 156 1375ft 96kts
31-Jul-20 19:19 32.727853 -117.156232 246 635ft 74kts
31-Jul-20 19:20 32.730196 -117.175981 296 158ft 55kts
31-Jul-20 19:21 32.733492 -117.188042 319 20ft 13kts
31-Jul-20 19:22 32.734082 -117.188141 2 20ft 0kts
31-Jul-20 19:24 32.733993 -117.186730 106 20ft 12kts
31-Jul-20 19:25 32.733164 -117.183322 105 20ft 11kts
31-Jul-20 19:26 32.732843 -117.179745 12 20ft 7kts
31-Jul-20 19:27 32.734226 -117.179618 99 20ft 0kts
31-Jul-20 19:28 32.734226 -117.179619 99 20ft 0kts

Navigation Log

Ident Type
Flight plan parsing failed, navigation log unavailable